Time;durP1;ratioP1;P1;durP2;ratioP2;P2;SDS_P1;SDS_P2;PMS_P1;PMS_P2;Temp;Humidity;BMP_temperature;BMP_pressure;BME280_temperature;BME280_humidity;BME280_pressure;Samples;Min_cycle;Max_cycle;Signal;HPM_P1;HPM_P2
2023/04/30 00:00:12;;;;;;;11.27;4.55;;;8.70;99.90;;;;;;6183168;23;20025;-82
2023/04/30 00:02:38;;;;;;;8.68;4.38;;;8.60;99.90;;;;;;6183006;23;20056;-81
2023/04/30 00:05:04;;;;;;;5.80;3.80;;;8.60;99.90;;;;;;6182676;23;20042;-81
2023/04/30 00:07:31;;;;;;;7.68;4.00;;;8.60;99.90;;;;;;6182207;23;20036;-81
2023/04/30 00:09:56;;;;;;;7.72;3.90;;;8.40;99.90;;;;;;6209946;23;20020;-81
2023/04/30 00:12:22;;;;;;;7.80;4.13;;;8.40;99.90;;;;;;6183612;23;20017;-81
2023/04/30 00:14:48;;;;;;;5.07;3.38;;;8.40;99.90;;;;;;6183598;23;20028;-81
2023/04/30 00:17:14;;;;;;;7.13;4.07;;;8.40;99.90;;;;;;6210548;23;20020;-82
2023/04/30 00:19:41;;;;;;;6.75;4.15;;;8.30;99.90;;;;;;6183696;23;20035;-82
2023/04/30 00:22:07;;;;;;;5.32;4.15;;;8.20;99.90;;;;;;6183468;23;20067;-82
2023/04/30 00:24:33;;;;;;;8.27;4.65;;;8.00;99.90;;;;;;6183386;23;20043;-81
2023/04/30 00:26:59;;;;;;;7.18;4.35;;;7.90;99.90;;;;;;6183850;23;20016;-81
2023/04/30 00:29:25;;;;;;;8.30;4.20;;;7.90;99.90;;;;;;6210781;23;20016;-78
2023/04/30 00:31:50;;;;;;;7.30;4.50;;;8.00;99.90;;;;;;6180260;23;20020;-82
2023/04/30 00:34:16;;;;;;;8.77;4.30;;;8.00;99.90;;;;;;6184298;23;20035;-81
2023/04/30 00:36:42;;;;;;;11.60;4.95;;;8.10;99.90;;;;;;6211567;23;20038;-80
2023/04/30 00:39:08;;;;;;;11.75;4.72;;;8.00;99.90;;;;;;6211460;23;20035;-81
2023/04/30 00:41:37;;;;;;;4.90;4.40;;;7.90;99.90;;;;;;6184824;23;20025;-81
2023/04/30 00:44:03;;;;;;;7.20;4.68;;;7.90;99.90;;;;;;6184893;23;20423;-81
2023/04/30 00:46:29;;;;;;;12.07;4.45;;;8.00;99.90;;;;;;6212240;23;20069;-81
2023/04/30 00:48:55;;;;;;;8.02;4.63;;;8.00;99.90;;;;;;6211731;23;20020;-81
2023/04/30 00:51:22;;;;;;;9.90;4.57;;;8.10;99.90;;;;;;6160152;23;20059;-81
2023/04/30 00:53:48;;;;;;;6.75;4.55;;;8.00;99.90;;;;;;6184458;23;20028;-81
2023/04/30 00:56:17;;;;;;;7.03;4.63;;;8.00;99.90;;;;;;6184820;23;20370;-81
2023/04/30 00:58:44;;;;;;;8.02;5.95;;;7.90;99.90;;;;;;6184810;23;20659;-81
2023/04/30 01:01:10;;;;;;;6.82;3.97;;;8.00;99.90;;;;;;6184730;23;20048;-80
2023/04/30 01:03:35;;;;;;;6.38;4.40;;;7.90;99.90;;;;;;6184757;23;20035;-81
2023/04/30 01:06:04;;;;;;;7.70;5.47;;;7.90;99.90;;;;;;6184467;23;20056;-80
2023/04/30 01:08:31;;;;;;;5.95;4.32;;;7.80;99.90;;;;;;6184474;23;20151;-80
2023/04/30 01:10:59;;;;;;;8.25;4.57;;;7.80;99.90;;;;;;6209900;23;20040;-81
2023/04/30 01:13:52;;;;;;;6.10;4.40;;;7.90;99.90;;;;;;6211733;23;20325;-81
2023/04/30 01:16:24;;;;;;;5.93;4.32;;;8.00;99.90;;;;;;6164159;23;20029;-80
2023/04/30 01:19:10;;;;;;;7.60;4.22;;;7.80;99.90;;;;;;6211728;23;20035;-81
2023/04/30 01:21:40;;;;;;;9.27;4.45;;;7.80;99.90;;;;;;6211899;23;20040;-81
2023/04/30 01:25:03;;;;;;;7.82;4.43;;;7.70;99.90;;;;;;6184918;23;20028;-81
2023/04/30 01:28:08;;;;;;;8.80;4.28;;;7.80;99.90;;;;;;6060275;23;20026;-81
2023/04/30 01:30:34;;;;;;;7.65;4.15;;;7.70;99.90;;;;;;6204813;23;20063;-82
2023/04/30 01:33:01;;;;;;;5.78;4.78;;;7.70;99.90;;;;;;6179913;23;20031;-81
2023/04/30 01:35:48;;;;;;;8.07;3.92;;;7.60;99.90;;;;;;6179413;23;20148;-81
2023/04/30 01:38:38;;;;;;;8.13;4.32;;;7.60;99.90;;;;;;6180894;23;20028;-81
2023/04/30 01:41:09;;;;;;;5.95;4.25;;;7.60;99.90;;;;;;6180877;23;20025;-81
2023/04/30 01:44:02;;;;;;;7.68;4.80;;;7.60;99.90;;;;;;6179664;23;20183;-81
2023/04/30 01:46:29;;;;;;;;;;;7.60;99.90;;;;;;6180152;23;20705;-81
2023/04/30 01:48:57;;;;;;;6.47;4.35;;;7.60;99.90;;;;;;6179106;23;20221;-81
2023/04/30 01:51:26;;;;;;;5.57;3.72;;;7.50;99.90;;;;;;6180735;23;20056;-80
2023/04/30 01:53:55;;;;;;;6.70;4.20;;;7.50;99.90;;;;;;6178851;23;20024;-81
2023/04/30 01:56:28;;;;;;;7.65;5.20;;;7.50;99.90;;;;;;6178756;23;20027;-81
2023/04/30 01:58:54;;;;;;;6.57;4.93;;;7.40;99.90;;;;;;6181106;23;20017;-81
2023/04/30 02:01:30;;;;;;;10.05;5.25;;;7.40;99.90;;;;;;6181235;23;20016;-81
2023/04/30 02:03:56;;;;;;;6.18;3.97;;;7.40;99.90;;;;;;6179444;23;20027;-81
2023/04/30 02:06:27;;;;;;;11.32;5.60;;;7.30;99.90;;;;;;6153883;23;20025;-81
2023/04/30 02:09:04;;;;;;;8.18;4.43;;;7.30;99.90;;;;;;6179790;23;20021;-80
2023/04/30 02:11:29;;;;;;;8.77;4.47;;;7.30;99.90;;;;;;6179283;23;20712;-81
2023/04/30 02:13:55;;;;;;;5.30;3.83;;;7.20;99.90;;;;;;6179189;23;20025;-81
2023/04/30 02:16:21;;;;;;;4.18;3.42;;;7.20;99.90;;;;;;6179230;23;20036;-81
2023/04/30 02:18:47;;;;;;;5.07;3.30;;;7.20;99.90;;;;;;6180677;23;20052;-81
2023/04/30 02:21:13;;;;;;;5.35;3.90;;;7.10;99.90;;;;;;6181032;23;20016;-81
2023/04/30 02:23:39;;;;;;;8.05;4.15;;;7.10;99.90;;;;;;6179496;23;20056;-80
2023/04/30 02:26:05;;;;;;;5.55;4.03;;;7.10;99.90;;;;;;6178748;23;20024;-80
2023/04/30 02:28:30;;;;;;;5.90;4.28;;;7.10;99.90;;;;;;6178763;23;20036;-81
2023/04/30 02:30:56;;;;;;;6.55;3.85;;;7.10;99.90;;;;;;6178606;23;20029;-81
2023/04/30 02:33:22;;;;;;;7.38;4.03;;;7.10;99.90;;;;;;6178336;23;20126;-81
2023/04/30 02:35:48;;;;;;;6.25;4.07;;;7.10;99.90;;;;;;6181060;23;20425;-81
2023/04/30 02:38:14;;;;;;;10.73;4.82;;;7.10;99.90;;;;;;6179083;23;20468;-80
2023/04/30 02:40:41;;;;;;;7.25;4.55;;;7.10;99.90;;;;;;6180760;23;20044;-78
2023/04/30 02:43:07;;;;;;;6.50;5.05;;;7.00;99.90;;;;;;6179192;23;20028;-80
2023/04/30 02:45:33;;;;;;;7.15;4.88;;;6.80;99.90;;;;;;6180883;23;20025;-80
2023/04/30 02:47:59;;;;;;;7.75;5.65;;;6.80;99.90;;;;;;6178781;23;20013;-80
2023/04/30 02:50:24;;;;;;;7.93;4.97;;;6.80;99.90;;;;;;6153156;23;20024;-80
2023/04/30 02:52:50;;;;;;;6.50;4.20;;;6.80;99.90;;;;;;6178500;23;20023;-80
2023/04/30 02:55:16;;;;;;;6.07;4.13;;;6.90;99.90;;;;;;6178320;23;20060;-80
2023/04/30 02:57:41;;;;;;;7.80;3.88;;;6.80;99.90;;;;;;6178092;23;20440;-81
2023/04/30 03:00:08;;;;;;;6.10;3.80;;;6.70;99.90;;;;;;6178639;23;20400;-80
2023/04/30 03:02:34;;;;;;;7.15;4.20;;;6.80;99.90;;;;;;6178681;23;20031;-80
2023/04/30 03:04:59;;;;;;;7.18;3.80;;;6.80;99.90;;;;;;6177994;23;20028;-80
2023/04/30 03:07:25;;;;;;;5.53;3.53;;;6.70;99.90;;;;;;6178480;23;20048;-80
2023/04/30 03:09:51;;;;;;;4.45;3.10;;;6.60;99.90;;;;;;6153621;23;20028;-79
2023/04/30 03:12:17;;;;;;;3.22;2.92;;;6.60;99.90;;;;;;6178081;23;20048;-80
2023/04/30 03:14:42;;;;;;;2.67;2.47;;;6.60;99.90;;;;;;6178323;23;20045;-80
2023/04/30 03:17:08;;;;;;;3.15;2.85;;;6.40;99.90;;;;;;6178396;23;20516;-81
2023/04/30 03:19:34;;;;;;;3.45;3.13;;;6.40;99.90;;;;;;6178174;23;20021;-80
2023/04/30 03:21:59;;;;;;;5.45;4.03;;;6.20;99.90;;;;;;6180536;23;20059;-80
2023/04/30 03:24:25;;;;;;;5.63;4.10;;;6.30;99.90;;;;;;6178473;23;20063;-80
2023/04/30 03:26:51;;;;;;;6.10;4.30;;;6.30;99.90;;;;;;6180539;23;20418;-80
2023/04/30 03:29:16;;;;;;;7.90;4.55;;;6.30;99.90;;;;;;6178300;23;20114;-81
2023/04/30 03:31:42;;;;;;;7.72;4.90;;;6.30;99.90;;;;;;6178154;23;20025;-81
2023/04/30 03:34:08;;;;;;;9.02;4.85;;;6.30;99.90;;;;;;6177920;23;20043;-80
2023/04/30 03:36:34;;;;;;;7.68;4.97;;;6.20;99.90;;;;;;6180097;23;20035;-80
2023/04/30 03:39:02;;;;;;;5.43;4.47;;;6.20;99.90;;;;;;6180216;23;20049;-80
2023/04/30 03:41:28;;;;;;;10.73;6.78;;;6.10;99.90;;;;;;6180014;23;20033;-81
2023/04/30 03:43:54;;;;;;;8.90;5.65;;;6.10;99.90;;;;;;6180027;23;20026;-80
2023/04/30 03:46:20;;;;;;;7.75;5.75;;;6.10;99.90;;;;;;6178244;23;20148;-80
2023/04/30 03:48:46;;;;;;;8.52;5.00;;;6.00;99.90;;;;;;6179628;23;20124;-80
2023/04/30 03:51:11;;;;;;;8.07;4.65;;;6.10;99.90;;;;;;6177865;23;20422;-80
2023/04/30 03:53:37;;;;;;;8.73;4.55;;;6.10;99.90;;;;;;6178154;23;20021;-81
2023/04/30 03:56:04;;;;;;;4.57;3.50;;;6.10;99.90;;;;;;6153252;23;20035;-80
2023/04/30 03:58:30;;;;;;;4.10;3.50;;;6.10;99.90;;;;;;6177766;23;20711;-80
2023/04/30 04:00:55;;;;;;;3.33;2.97;;;5.90;99.90;;;;;;6178381;23;20044;-80
2023/04/30 04:03:22;;;;;;;4.15;3.33;;;5.80;99.90;;;;;;6177320;23;20025;-81
2023/04/30 04:05:47;;;;;;;4.05;3.65;;;5.90;99.90;;;;;;6179455;23;20029;-80
2023/04/30 04:08:13;;;;;;;3.60;3.00;;;5.80;99.90;;;;;;6180778;23;20424;-80
2023/04/30 04:10:39;;;;;;;4.20;3.80;;;5.80;99.90;;;;;;6179937;23;20020;-80
2023/04/30 04:13:05;;;;;;;3.70;3.35;;;6.00;99.90;;;;;;6179798;23;20684;-80
2023/04/30 04:15:32;;;;;;;5.78;3.92;;;5.90;99.90;;;;;;6181669;23;20021;-80
2023/04/30 04:17:58;;;;;;;6.65;3.50;;;5.90;99.90;;;;;;6179769;23;20033;-81
2023/04/30 04:20:23;;;;;;;3.75;3.42;;;5.90;99.90;;;;;;6181639;23;20024;-80
2023/04/30 04:22:49;;;;;;;4.70;4.05;;;6.00;99.90;;;;;;6179907;23;20025;-80
2023/04/30 04:25:16;;;;;;;4.65;3.78;;;5.90;99.90;;;;;;6181435;23;20126;-78
2023/04/30 04:27:43;;;;;;;4.78;4.00;;;6.00;99.90;;;;;;6180036;23;20049;-81
2023/04/30 04:30:09;;;;;;;4.43;3.90;;;6.00;99.90;;;;;;6182336;23;20032;-80
2023/04/30 04:32:40;;;;;;;8.23;4.40;;;6.00;99.90;;;;;;6184539;23;20451;-81
2023/04/30 04:35:07;;;;;;;6.13;4.68;;;5.90;99.90;;;;;;6184820;23;20445;-80
2023/04/30 04:37:34;;;;;;;7.15;4.70;;;6.00;99.90;;;;;;6184720;23;20071;-80
2023/04/30 04:39:59;;;;;;;5.75;4.55;;;6.00;99.90;;;;;;6159742;23;20029;-80
2023/04/30 04:42:25;;;;;;;6.07;4.18;;;6.10;99.90;;;;;;6211524;23;20408;-80
2023/04/30 04:44:51;;;;;;;7.45;4.68;;;6.10;99.90;;;;;;6184630;23;20412;-80
2023/04/30 04:47:20;;;;;;;7.13;5.18;;;6.10;99.90;;;;;;6211992;23;20151;-80
2023/04/30 04:49:46;;;;;;;5.53;4.80;;;6.20;99.90;;;;;;6185089;23;20059;-80
2023/04/30 04:52:11;;;;;;;13.20;6.47;;;6.10;99.90;;;;;;6211840;23;20071;-80
2023/04/30 04:54:37;;;;;;;10.80;5.97;;;6.20;99.90;;;;;;6211239;23;20020;-80
2023/04/30 04:57:03;;;;;;;10.23;6.00;;;6.20;99.90;;;;;;6184421;23;20024;-80
2023/04/30 04:59:28;;;;;;;11.05;6.95;;;6.20;99.90;;;;;;6184496;23;20511;-80
2023/04/30 05:01:55;;;;;;;14.98;6.80;;;6.30;99.90;;;;;;6184488;23;20024;-80
2023/04/30 05:04:21;;;;;;;16.35;8.00;;;6.40;99.90;;;;;;6184496;23;20040;-80
2023/04/30 05:06:46;;;;;;;13.23;7.70;;;6.40;99.90;;;;;;6184291;23;20024;-80
2023/04/30 05:09:12;;;;;;;13.05;8.02;;;6.60;99.90;;;;;;6184132;23;20021;-79
2023/04/30 05:11:40;;;;;;;15.70;7.53;;;6.70;99.90;;;;;;6184714;23;20123;-80
2023/04/30 05:14:06;;;;;;;13.23;7.93;;;6.80;99.90;;;;;;6184670;23;20486;-80
2023/04/30 05:16:32;;;;;;;11.30;7.50;;;6.90;99.90;;;;;;6182546;23;20021;-80
2023/04/30 05:18:58;;;;;;;15.13;7.22;;;7.00;99.90;;;;;;6209465;23;20027;-79
2023/04/30 05:21:28;;;;;;;15.75;7.22;;;7.00;99.90;;;;;;6211113;23;20048;-79
2023/04/30 05:23:54;;;;;;;13.48;7.35;;;7.10;99.90;;;;;;6183906;23;20044;-79
2023/04/30 05:26:19;;;;;;;18.33;7.70;;;7.10;99.90;;;;;;6159044;23;20102;-79
2023/04/30 05:28:45;;;;;;;11.93;7.70;;;7.10;99.90;;;;;;6183940;23;20105;-80
2023/04/30 05:31:11;;;;;;;16.48;7.43;;;7.30;99.90;;;;;;6210165;23;20052;-79
2023/04/30 05:33:37;;;;;;;15.98;7.75;;;7.50;99.90;;;;;;6183152;23;20012;-80
2023/04/30 05:36:03;;;;;;;12.73;7.30;;;7.60;99.90;;;;;;6210648;23;20021;-79
2023/04/30 05:38:28;;;;;;;20.02;8.15;;;7.70;99.90;;;;;;6210451;23;20021;-79
2023/04/30 05:40:54;;;;;;;14.07;7.32;;;7.90;99.90;;;;;;6183687;23;20017;-79
2023/04/30 05:43:20;;;;;;;12.32;7.43;;;8.10;99.90;;;;;;6210924;23;20070;-80
2023/04/30 05:45:45;;;;;;;15.05;8.20;;;8.20;99.90;;;;;;6183725;23;20029;-80
2023/04/30 05:48:11;;;;;;;12.55;7.13;;;8.30;99.90;;;;;;6211186;23;20052;-80
2023/04/30 05:50:37;;;;;;;11.88;7.32;;;8.30;99.90;;;;;;6185395;23;20024;-80
2023/04/30 05:53:02;;;;;;;18.10;8.07;;;8.40;99.90;;;;;;6211325;23;20020;-79
2023/04/30 05:55:28;;;;;;;15.63;7.00;;;8.60;99.90;;;;;;6211665;23;20084;-80
2023/04/30 05:57:54;;;;;;;14.63;7.45;;;8.60;99.90;;;;;;6211518;23;20013;-80
2023/04/30 06:00:20;;;;;;;18.15;6.88;;;8.70;99.90;;;;;;6184080;23;20610;-79
2023/04/30 06:02:45;;;;;;;8.77;5.70;;;8.80;99.90;;;;;;6184112;23;20029;-79
2023/04/30 06:05:11;;;;;;;8.52;6.30;;;8.90;99.90;;;;;;6210634;23;20063;-80
2023/04/30 06:07:37;;;;;;;10.52;5.82;;;9.00;99.90;;;;;;6211287;23;20040;-79
2023/04/30 06:10:03;;;;;;;11.05;5.45;;;9.00;99.90;;;;;;6184352;23;20044;-79
2023/04/30 06:12:29;;;;;;;14.55;5.93;;;9.20;99.90;;;;;;6183656;23;20029;-80
2023/04/30 06:14:55;;;;;;;8.95;5.80;;;9.20;99.90;;;;;;6183476;23;20115;-80
2023/04/30 06:17:21;;;;;;;13.02;5.85;;;9.20;99.90;;;;;;6183911;23;20055;-80
2023/04/30 06:19:46;;;;;;;10.38;6.18;;;9.30;99.90;;;;;;6183770;23;20128;-80
2023/04/30 06:22:12;;;;;;;8.90;6.47;;;9.40;99.90;;;;;;6158237;23;20039;-82
2023/04/30 06:24:38;;;;;;;12.48;5.45;;;9.50;99.90;;;;;;6183605;23;20052;-79
2023/04/30 06:27:04;;;;;;;6.60;4.85;;;9.50;99.90;;;;;;6182952;23;20055;-80
2023/04/30 06:29:29;;;;;;;8.60;5.57;;;9.50;99.90;;;;;;6210429;23;20025;-81
2023/04/30 06:31:56;;;;;;;15.82;6.10;;;9.60;99.90;;;;;;6182808;23;20036;-81
2023/04/30 06:34:21;;;;;;;16.77;5.22;;;9.70;99.90;;;;;;6210750;23;20122;-81
2023/04/30 06:36:47;;;;;;;11.55;4.88;;;9.70;99.90;;;;;;6210269;23;20345;-80
2023/04/30 06:39:16;;;;;;;11.73;4.47;;;9.70;99.90;;;;;;6183175;23;20144;-80
2023/04/30 06:41:42;;;;;;;14.27;4.47;;;9.80;99.90;;;;;;6209960;23;20016;-80
2023/04/30 06:44:08;;;;;;;11.00;4.32;;;9.60;99.90;;;;;;6210571;23;20580;-81
2023/04/30 06:46:33;;;;;;;6.72;3.97;;;9.70;99.90;;;;;;6210373;23;20020;-74
2023/04/30 06:48:59;;;;;;;9.85;3.20;;;9.60;99.90;;;;;;6210159;23;20013;-80
2023/04/30 06:51:25;;;;;;;7.93;3.35;;;9.60;99.90;;;;;;6209267;23;20024;-80
2023/04/30 06:53:51;;;;;;;6.47;2.80;;;9.60;99.90;;;;;;6209956;23;20051;-80
2023/04/30 06:56:17;;;;;;;5.07;2.85;;;9.70;99.90;;;;;;6209894;23;20248;-80
2023/04/30 06:58:43;;;;;;;9.82;3.00;;;9.70;99.90;;;;;;6209995;23;20209;-81
2023/04/30 07:01:09;;;;;;;6.57;2.67;;;9.90;99.90;;;;;;6210676;23;20067;-80
2023/04/30 07:03:35;;;;;;;7.47;3.53;;;10.00;99.90;;;;;;6183079;23;20385;-78
2023/04/30 07:06:01;;;;;;;8.07;2.83;;;10.00;99.90;;;;;;6209827;23;20036;-80
2023/04/30 07:08:27;;;;;;;7.22;2.88;;;9.90;99.90;;;;;;6183193;23;20365;-80
2023/04/30 07:10:52;;;;;;;4.15;3.28;;;10.00;99.90;;;;;;6182994;23;20028;-80
2023/04/30 07:13:18;;;;;;;9.52;3.45;;;10.10;99.90;;;;;;6210017;23;20356;-78
2023/04/30 07:15:44;;;;;;;5.32;2.90;;;10.30;99.90;;;;;;6182835;23;20079;-80
2023/04/30 07:18:10;;;;;;;8.77;3.40;;;10.40;99.90;;;;;;6210144;23;20408;-80
2023/04/30 07:20:35;;;;;;;4.90;2.80;;;10.40;99.90;;;;;;6182402;23;20384;-80
2023/04/30 07:23:01;;;;;;;7.65;3.25;;;10.50;99.90;;;;;;6209446;23;20032;-80
2023/04/30 07:25:27;;;;;;;10.15;4.13;;;10.50;99.90;;;;;;6209585;23;20028;-80
2023/04/30 07:27:54;;;;;;;3.47;2.53;;;10.50;99.90;;;;;;6182604;23;20467;-79
2023/04/30 07:30:20;;;;;;;5.10;3.47;;;10.50;99.90;;;;;;6181669;23;20031;-78
2023/04/30 07:32:46;;;;;;;13.40;3.58;;;10.60;99.90;;;;;;6209543;23;20111;-77
2023/04/30 07:35:13;;;;;;;12.77;5.18;;;10.70;99.90;;;;;;6181720;23;20099;-78
2023/04/30 07:37:40;;;;;;;11.30;3.28;;;10.90;99.90;;;;;;6156920;23;20020;-78
2023/04/30 07:40:08;;;;;;;10.77;4.18;;;10.90;99.90;;;;;;6181202;23;20397;-78
2023/04/30 07:42:33;;;;;;;10.90;3.00;;;11.00;99.90;;;;;;6181664;23;20024;-78
2023/04/30 07:44:59;;;;;;;13.77;3.67;;;10.80;99.90;;;;;;6208816;23;20021;-78
2023/04/30 07:47:26;;;;;;;7.28;3.50;;;10.80;99.90;;;;;;6157234;23;20096;-78
2023/04/30 07:49:51;;;;;;;8.57;4.03;;;10.90;99.90;;;;;;6157540;23;20025;-78
2023/04/30 07:52:17;;;;;;;8.73;3.33;;;11.00;99.90;;;;;;6181109;23;20031;-78
2023/04/30 07:54:43;;;;;;;10.45;3.90;;;10.90;99.90;;;;;;6180324;23;20517;-74
2023/04/30 07:57:09;;;;;;;9.38;4.13;;;11.00;99.90;;;;;;6208576;23;20064;-79
2023/04/30 07:59:34;;;;;;;8.23;4.05;;;11.10;99.90;;;;;;6181717;23;20523;-78
2023/04/30 08:02:00;;;;;;;6.05;3.15;;;11.30;99.90;;;;;;6209121;23;20059;-78
2023/04/30 08:04:26;;;;;;;8.88;3.38;;;11.20;99.90;;;;;;6208403;23;20411;-78
2023/04/30 08:06:52;;;;;;;6.78;3.00;;;11.10;99.90;;;;;;6209100;23;20023;-78
2023/04/30 08:09:17;;;;;;;9.57;3.35;;;11.10;99.90;;;;;;6209205;23;20771;-79
2023/04/30 08:11:43;;;;;;;7.95;3.08;;;11.10;99.90;;;;;;6182096;23;20032;-78
2023/04/30 08:14:09;;;;;;;11.25;3.47;;;11.10;99.90;;;;;;6181981;23;20070;-79
2023/04/30 08:16:34;;;;;;;6.38;3.15;;;11.20;99.90;;;;;;6208582;23;20215;-78
2023/04/30 08:19:00;;;;;;;9.27;2.90;;;11.20;99.90;;;;;;6182308;23;20094;-78
2023/04/30 08:21:27;;;;;;;6.93;3.28;;;11.20;99.90;;;;;;6182310;23;20024;-78
2023/04/30 08:23:53;;;;;;;8.25;3.35;;;11.10;99.90;;;;;;6208897;23;20035;-78
2023/04/30 08:26:19;;;;;;;10.27;3.47;;;11.00;99.90;;;;;;6181323;23;20033;-79
2023/04/30 08:28:45;;;;;;;11.52;3.33;;;11.30;99.90;;;;;;6209134;23;20043;-78
2023/04/30 08:31:11;;;;;;;11.27;4.53;;;11.40;99.90;;;;;;6208715;23;20087;-79
2023/04/30 08:33:37;;;;;;;9.93;2.95;;;11.60;99.90;;;;;;6182193;23;20074;-79
2023/04/30 08:36:03;;;;;;;6.85;3.38;;;11.60;99.90;;;;;;6209385;23;20190;-79
2023/04/30 08:38:29;;;;;;;6.45;2.65;;;11.50;99.90;;;;;;6181728;23;20068;-79
2023/04/30 08:41:11;;;;;;;7.53;4.65;;;11.60;99.90;;;;;;6182019;23;20103;-79
2023/04/30 08:43:37;;;;;;;6.15;2.88;;;11.60;99.90;;;;;;6209727;23;20064;-78
2023/04/30 08:46:05;;;;;;;10.10;3.45;;;11.90;99.90;;;;;;6181824;23;20024;-79
2023/04/30 08:48:31;;;;;;;9.35;3.92;;;11.90;99.90;;;;;;6156783;23;20024;-79
2023/04/30 08:51:03;;;;;;;8.27;3.05;;;11.90;99.90;;;;;;6181938;23;20028;-80
2023/04/30 08:53:31;;;;;;;7.35;3.50;;;11.90;99.90;;;;;;6181885;23;20059;-80
2023/04/30 08:55:57;;;;;;;7.88;3.45;;;12.00;99.90;;;;;;6182491;23;20078;-79
2023/04/30 08:58:23;;;;;;;12.98;3.75;;;12.10;99.90;;;;;;6183928;23;20024;-79
2023/04/30 09:00:49;;;;;;;4.82;3.25;;;12.00;99.90;;;;;;6182607;23;20028;-72
2023/04/30 09:03:15;;;;;;;6.38;2.92;;;12.00;99.90;;;;;;6209376;23;20034;-73
2023/04/30 09:05:40;;;;;;;6.43;2.97;;;12.20;99.90;;;;;;6209255;23;20495;-73
2023/04/30 09:08:07;;;;;;;9.25;2.83;;;12.30;99.90;;;;;;6182094;23;20021;-71
2023/04/30 09:10:34;;;;;;;8.27;3.00;;;12.40;99.90;;;;;;6182148;23;20052;-72
2023/04/30 09:13:10;;;;;;;10.55;5.10;;;12.30;99.90;;;;;;6182388;23;20017;-72
2023/04/30 09:15:40;;;;;;;6.63;3.33;;;12.40;99.90;;;;;;6209351;23;20043;-72
2023/04/30 09:18:17;;;;;;;8.55;3.42;;;12.30;99.90;;;;;;6209569;23;20390;-72
2023/04/30 09:21:04;;;;;;;14.57;3.58;;;12.20;99.90;;;;;;6209070;23;20012;-72
2023/04/30 09:23:30;;;;;;;4.93;2.67;;;12.20;99.90;;;;;;6158001;23;20025;-72
2023/04/30 09:25:56;;;;;;;8.02;3.30;;;12.10;99.90;;;;;;6209449;23;20445;-72
2023/04/30 09:28:25;;;;;;;15.38;3.75;;;12.10;99.90;;;;;;6182711;23;20024;-71
2023/04/30 09:30:51;;;;;;;10.00;3.75;;;12.00;99.90;;;;;;6206037;23;20436;-74
2023/04/30 09:33:17;;;;;;;7.43;3.28;;;12.10;99.90;;;;;;6182582;23;20024;-73
2023/04/30 09:35:43;;;;;;;18.92;4.57;;;12.10;99.90;;;;;;6209069;23;20020;-72
2023/04/30 09:38:28;;;;;;;8.07;3.20;;;12.20;99.90;;;;;;6209868;23;20024;-72
2023/04/30 09:40:54;;;;;;;9.98;2.97;;;12.20;99.90;;;;;;6182524;23;20036;-75
2023/04/30 09:43:20;;;;;;;6.28;3.20;;;12.50;99.90;;;;;;6207859;23;20055;-75
2023/04/30 09:45:48;;;;;;;10.93;3.17;;;12.60;99.90;;;;;;6157502;23;20044;-75
2023/04/30 09:48:21;;;;;;;5.95;2.92;;;12.80;99.90;;;;;;6209599;23;20016;-74
2023/04/30 09:50:48;;;;;;;6.68;3.28;;;12.70;99.90;;;;;;6209615;23;20378;-77
2023/04/30 09:53:17;;;;;;;5.28;3.28;;;12.90;99.90;;;;;;6159108;23;20071;-81
2023/04/30 09:55:46;;;;;;;7.97;3.80;;;12.90;99.90;;;;;;6183962;23;20104;-80
2023/04/30 09:58:13;;;;;;;7.45;3.22;;;12.90;99.90;;;;;;6211150;23;20017;-80
2023/04/30 10:00:39;;;;;;;7.07;3.53;;;12.90;99.90;;;;;;6183079;23;20078;-75
2023/04/30 10:03:08;;;;;;;9.50;3.65;;;13.00;99.90;;;;;;6181128;23;20024;-74
2023/04/30 10:05:48;;;;;;;11.52;4.07;;;12.80;99.90;;;;;;6182306;23;20024;-75
2023/04/30 10:08:48;;;;;;;8.23;3.95;;;12.70;99.90;;;;;;6182716;23;20086;-74
2023/04/30 10:11:22;;;;;;;8.05;3.22;;;12.80;99.90;;;;;;6129679;23;20293;-74
2023/04/30 10:14:01;;;;;;;9.65;3.60;;;12.80;99.90;;;;;;6182902;23;20472;-74
2023/04/30 10:16:53;;;;;;;9.57;3.20;;;13.00;99.90;;;;;;6209982;23;20024;-75
2023/04/30 10:19:24;;;;;;;8.93;3.05;;;13.20;99.90;;;;;;6184270;23;20466;-74
2023/04/30 10:21:51;;;;;;;4.68;2.60;;;13.30;99.90;;;;;;6185233;23;20577;-77
2023/04/30 10:24:19;;;;;;;7.82;3.88;;;13.30;99.90;;;;;;6185254;23;20031;-79
2023/04/30 10:26:46;;;;;;;6.30;2.85;;;13.20;99.90;;;;;;6185393;23;20095;-78
2023/04/30 10:29:16;;;;;;;10.57;4.78;;;13.30;99.90;;;;;;6212143;23;20114;-79
2023/04/30 10:31:45;;;;;;;9.05;3.08;;;13.20;99.90;;;;;;6179024;23;20029;-79
2023/04/30 10:34:32;;;;;;;10.20;3.20;;;13.30;99.90;;;;;;6178135;23;20519;-78
2023/04/30 10:37:25;;;;;;;2.83;2.25;;;13.40;99.90;;;;;;6177364;23;20028;-78
2023/04/30 10:39:51;;;;;;;9.10;2.88;;;13.30;99.90;;;;;;6178463;23;20032;-79
2023/04/30 10:42:17;;;;;;;9.77;2.80;;;13.30;99.90;;;;;;6178410;23;20028;-79
2023/04/30 10:44:43;;;;;;;4.05;2.67;;;13.30;99.90;;;;;;6180553;23;20024;-79
2023/04/30 10:47:09;;;;;;;5.50;2.53;;;13.40;99.90;;;;;;6177984;23;20112;-79
2023/04/30 10:49:35;;;;;;;6.50;2.92;;;13.50;99.90;;;;;;6180066;23;20048;-79
2023/04/30 10:52:04;;;;;;;5.93;3.78;;;13.50;99.90;;;;;;6153412;23;20133;-79
2023/04/30 10:54:33;;;;;;;6.57;2.70;;;13.40;99.90;;;;;;6180632;23;20752;-79
2023/04/30 10:57:11;;;;;;;10.27;2.67;;;13.50;99.90;;;;;;6178261;23;20374;-79
2023/04/30 10:59:37;;;;;;;6.85;2.17;;;13.70;99.90;;;;;;6153256;23;20033;-79
2023/04/30 11:02:03;;;;;;;6.10;2.40;;;13.60;99.90;;;;;;6178582;23;20413;-79
2023/04/30 11:04:29;;;;;;;6.00;2.05;;;13.60;99.90;;;;;;6177899;23;20032;-79
2023/04/30 11:07:02;;;;;;;10.57;3.15;;;13.60;99.90;;;;;;6178321;23;20025;-79
2023/04/30 11:09:42;;;;;;;7.07;2.10;;;13.60;99.90;;;;;;6178055;23;20082;-78
2023/04/30 11:12:13;;;;;;;3.35;2.25;;;13.80;99.90;;;;;;6176091;23;20130;-73
2023/04/30 11:14:43;;;;;;;9.02;2.95;;;13.80;99.90;;;;;;6176284;23;20381;-74
2023/04/30 11:17:28;;;;;;;6.10;2.60;;;13.80;99.90;;;;;;6177819;23;20017;-73
2023/04/30 11:19:59;;;;;;;4.53;2.15;;;13.80;99.90;;;;;;6177935;23;20013;-72
2023/04/30 11:22:26;;;;;;;6.38;2.45;;;13.90;99.90;;;;;;6176340;23;20032;-72
2023/04/30 11:25:04;;;;;;;3.53;1.90;;;13.80;99.90;;;;;;6176276;23;20161;-72
2023/04/30 11:27:33;;;;;;;5.03;2.17;;;13.80;99.90;;;;;;6177935;23;20497;-74
2023/04/30 11:29:59;;;;;;;5.55;2.58;;;14.10;99.90;;;;;;6176510;23;20044;-72
2023/04/30 11:32:35;;;;;;;3.63;2.30;;;14.10;99.90;;;;;;6207374;23;20054;-71
2023/04/30 11:35:04;;;;;;;5.43;1.88;;;14.10;99.90;;;;;;6182048;23;20029;-72
2023/04/30 11:37:36;;;;;;;4.45;1.80;;;14.30;99.90;;;;;;6181141;23;20038;-72
2023/04/30 11:40:07;;;;;;;4.80;2.33;;;14.20;99.90;;;;;;6181256;23;20079;-73
2023/04/30 11:42:33;;;;;;;4.22;2.17;;;14.30;99.90;;;;;;6208308;23;20674;-73
2023/04/30 11:45:19;;;;;;;3.08;2.13;;;14.40;99.90;;;;;;6180849;23;20275;-73
2023/04/30 11:47:53;;;;;;;3.58;1.73;;;14.30;99.90;;;;;;6181305;23;20027;-73
2023/04/30 11:50:27;;;;;;;4.90;1.95;;;14.30;99.90;;;;;;6181582;23;20020;-73
2023/04/30 11:52:55;;;;;;;2.33;1.80;;;14.40;99.90;;;;;;6208884;23;20388;-73
2023/04/30 11:55:25;;;;;;;5.97;2.13;;;14.40;99.90;;;;;;6208887;23;20087;-74
2023/04/30 11:57:57;;;;;;;5.50;2.13;;;14.40;99.90;;;;;;6181335;23;20020;-73
2023/04/30 12:00:28;;;;;;;4.55;2.05;;;14.50;99.90;;;;;;6208798;23;20028;-73
2023/04/30 12:02:54;;;;;;;3.97;2.03;;;14.50;99.90;;;;;;6208556;23;20021;-73
2023/04/30 12:05:25;;;;;;;2.92;2.17;;;14.50;99.90;;;;;;6181408;23;20020;-73
2023/04/30 12:07:54;;;;;;;3.28;2.08;;;14.50;99.90;;;;;;6181480;23;20039;-73
2023/04/30 12:10:21;;;;;;;3.97;2.00;;;14.70;99.90;;;;;;6181452;23;20441;-72
2023/04/30 12:12:48;;;;;;;9.43;3.33;;;14.70;99.90;;;;;;6181333;23;20345;-74
2023/04/30 12:15:21;;;;;;;5.15;2.47;;;14.70;99.90;;;;;;6208122;23;20059;-74
2023/04/30 12:17:47;;;;;;;4.28;1.70;;;14.70;99.90;;;;;;6156413;23;20484;-74
2023/04/30 12:20:14;;;;;;;2.30;1.90;;;14.60;99.90;;;;;;6208124;23;20024;-74
2023/04/30 12:22:41;;;;;;;3.42;1.92;;;14.60;99.90;;;;;;6156544;23;20039;-74
2023/04/30 12:25:12;;;;;;;3.33;2.03;;;14.60;99.90;;;;;;6181206;23;20025;-74
2023/04/30 12:27:44;;;;;;;4.40;2.22;;;14.80;99.90;;;;;;6181834;23;20021;-74
2023/04/30 12:30:10;;;;;;;4.35;1.90;;;14.80;99.90;;;;;;6157227;23;20023;-72
2023/04/30 12:32:41;;;;;;;5.00;2.88;;;15.00;99.90;;;;;;6183347;23;20793;-74
2023/04/30 12:35:08;;;;;;;3.58;1.77;;;14.80;99.90;;;;;;6183445;23;20132;-74
2023/04/30 12:37:34;;;;;;;7.05;1.98;;;14.80;99.90;;;;;;6183545;23;20467;-73
2023/04/30 12:40:00;;;;;;;4.55;2.03;;;14.70;99.90;;;;;;6183199;23;20036;-74
2023/04/30 12:42:34;;;;;;;2.70;1.80;;;14.90;99.90;;;;;;6210321;23;20025;-74
2023/04/30 12:45:00;;;;;;;3.63;1.90;;;15.10;99.90;;;;;;6208242;23;20024;-75
2023/04/30 12:47:26;;;;;;;2.85;1.65;;;15.30;99.90;;;;;;6183178;23;20039;-74
2023/04/30 12:49:51;;;;;;;3.42;2.00;;;15.20;99.90;;;;;;6210309;23;20008;-73
2023/04/30 12:52:23;;;;;;;3.40;1.65;;;15.30;99.90;;;;;;6210079;23;20103;-74
2023/04/30 12:54:48;;;;;;;2.78;1.58;;;15.30;99.90;;;;;;6182936;23;20024;-74